M I D A S
Marine Information and Data Acquisition System
Tripno 1522 of the Zeeleeuw from 2008-07-18 07:56:38 to 2008-07-18 15:00:26
Back to CruiseResearch ActivitiesStationsMapUnderway DataData graphs

EquipmentUnitsComment
TimeDGPSUTC
LatitudeDGPSDM.mWGS84
LongitudeDGPSDM.mWGS84
HeadingGyrodeg 
SOGDGPSknotsSpeed over ground
COGDGPSdegCourse over ground
DepthEcho soundermeters200 kHz
Missing or incorrect values are displayed as -999
Navigation data collected by the RV Zeeleeuw from 2008-07-18 08:00:17 to 2008-07-18 15:03:24
Time Latitude Longitude Heading SOG COG Depth
2008-07-18 08:01:21 51°13.633 2°56.011 112.4 2.2 295 -999
2008-07-18 08:02:22 51°13.644 2°55.958 106.9 1 286 -999
2008-07-18 08:03:22 51°13.657 2°55.912 114.8 2.8 296 -999
2008-07-18 08:04:22 51°13.681 2°55.831 110.9 3.7 294 -999
2008-07-18 08:05:21 51°13.697 2°55.764 97.4 1.7 287 10.3
2008-07-18 08:06:21 51°13.71 2°55.775 43.7 1.7 37 10.3
2008-07-18 08:07:21 51°13.71 2°55.779 17.3 1.2 189 -999
2008-07-18 08:08:21 51°13.715 2°55.772 338.6 2.3 333 10.5
2008-07-18 08:09:21 51°13.767 2°55.698 318.6 5.5 319 10.2
2008-07-18 08:10:20 51°13.851 2°55.607 331.5 6.6 331 10.5
2008-07-18 08:11:20 51°13.952 2°55.53 337 6.9 335 10.6
2008-07-18 08:12:19 51°14.054 2°55.454 336.8 6.9 335 10.6
2008-07-18 08:13:19 51°14.166 2°55.364 333.8 8.3 331 10.1
2008-07-18 08:14:19 51°14.28 2°55.212 315.3 9.6 313 10
2008-07-18 08:15:19 51°14.389 2°55.01 312.2 10.3 312 9.9
2008-07-18 08:16:17 51°14.513 2°54.822 330.6 10.7 326 9.7
2008-07-18 08:17:17 51°14.691 2°54.746 353.4 11.6 347 9.2
2008-07-18 08:18:17 51°14.881 2°54.678 352.9 11.7 347 8.9
2008-07-18 08:19:17 51°15.072 2°54.621 355.9 11.5 352 8
2008-07-18 08:20:17 51°15.263 2°54.579 357.6 11.7 351 8.2
2008-07-18 08:21:17 51°15.455 2°54.526 353.9 11.7 348 8.8
2008-07-18 08:22:17 51°15.645 2°54.466 355.5 11.7 351 9.4
2008-07-18 08:23:17 51°15.838 2°54.419 357.6 11.7 351 10.2
2008-07-18 08:24:17 51°16.023 2°54.328 338.3 11.9 331 10.6
2008-07-18 08:25:17 51°16.181 2°54.149 327.2 11.1 321 10.7
2008-07-18 08:26:17 51°16.326 2°53.979 330 10.7 324 10.9
2008-07-18 08:27:17 51°16.472 2°53.816 332.4 10.6 326 11
2008-07-18 08:28:17 51°16.617 2°53.656 330.4 10.6 324 11.1
2008-07-18 08:29:17 51°16.763 2°53.499 332.4 10.5 327 10.8
2008-07-18 08:30:17 51°16.912 2°53.352 336.9 10.3 333 8.6
2008-07-18 08:31:17 51°17.067 2°53.246 342.6 10.1 337 8.1
2008-07-18 08:32:17 51°17.228 2°53.212 11.4 9.8 10 8.7
2008-07-18 08:33:17 51°17.37 2°53.33 37.7 9.8 37 8.7
2008-07-18 08:34:17 51°17.5 2°53.486 37.6 9.8 37 9
2008-07-18 08:35:17 51°17.634 2°53.636 35 9.9 34 9
2008-07-18 08:36:17 51°17.77 2°53.781 35.2 9.9 34 9.2
2008-07-18 08:37:17 51°17.908 2°53.921 33.7 9.8 34 9.6
2008-07-18 08:38:17 51°18.047 2°54.06 31.9 9.9 31 9.6
2008-07-18 08:39:17 51°18.152 2°54.172 41.2 4.8 41 9.8
2008-07-18 08:40:17 51°18.189 2°54.242 50.5 2.5 56 9.9
2008-07-18 08:41:17 51°18.198 2°54.282 58.1 0.8 76 9.9
2008-07-18 08:42:17 51°18.196 2°54.291 39.6 0.3 166 9.9
2008-07-18 08:43:17 51°18.194 2°54.293 22.6 -999 64 10
2008-07-18 08:44:17 51°18.195 2°54.293 10.4 0.1 351 9.9
2008-07-18 08:45:17 51°18.198 2°54.289 351.2 0.5 322 10
2008-07-18 08:46:17 51°18.206 2°54.276 331.7 0.9 304 10.1
2008-07-18 08:47:17 51°18.214 2°54.255 323.6 0.9 302 10
2008-07-18 08:48:17 51°18.223 2°54.23 318.5 1.2 298 10
2008-07-18 08:49:17 51°18.233 2°54.2 317.5 1.3 298 10.1
2008-07-18 08:50:17 51°18.243 2°54.17 318.5 1.4 299 10.2
2008-07-18 08:51:17 51°18.256 2°54.136 321 1.6 306 10.3
2008-07-18 08:52:17 51°18.275 2°54.101 328.7 1.9 316 10.4
2008-07-18 08:53:17 51°18.298 2°54.066 333.2 1.9 321 10.4
2008-07-18 08:54:17 51°18.322 2°54.03 329.9 2.1 316 10.5
2008-07-18 08:55:17 51°18.345 2°53.989 326.7 2 315 10.6
2008-07-18 08:56:17 51°18.372 2°53.958 339.6 2 327 10.6
2008-07-18 08:57:17 51°18.4 2°53.931 339.6 2 328 10.9
2008-07-18 08:58:17 51°18.429 2°53.903 339.9 2.1 328 10.9
2008-07-18 08:59:17 51°18.459 2°53.875 340.1 2 328 10.9
2008-07-18 09:00:17 51°18.486 2°53.847 340.9 2 331 11.1
2008-07-18 09:01:17 51°18.515 2°53.819 339.4 2 326 11.1
2008-07-18 09:02:17 51°18.544 2°53.792 341.4 2.1 329 11.2
2008-07-18 09:03:17 51°18.574 2°53.765 341 2.1 329 11.3
2008-07-18 09:04:17 51°18.603 2°53.739 346.8 2.1 341 11.3
2008-07-18 09:05:17 51°18.637 2°53.76 48.1 2.1 58 11.4
2008-07-18 09:06:17 51°18.638 2°53.786 71.3 0.6 136 11.4
2008-07-18 09:07:17 51°18.63 2°53.789 79.3 0.6 192 11.3
2008-07-18 09:08:20 51°18.617 2°53.766 73.9 1 214 -999
2008-07-18 09:09:20 51°18.61 2°53.764 69.3 0.4 101 7.9
2008-07-18 09:10:19 51°18.608 2°53.78 60.1 0.6 86 11.4
2008-07-18 09:11:18 51°18.61 2°53.795 46.1 0.5 74 11.4
2008-07-18 09:12:17 51°18.612 2°53.804 25.5 0.1 74 11.2
2008-07-18 09:13:17 51°18.611 2°53.808 9.4 0.2 138 11.5
2008-07-18 09:14:17 51°18.607 2°53.808 352 0.3 161 11.3
2008-07-18 09:15:17 51°18.603 2°53.808 339.6 0.3 171 11.3
2008-07-18 09:16:17 51°18.6 2°53.807 330.2 0.1 282 11.5
2008-07-18 09:17:17 51°18.601 2°53.802 327.9 0.3 292 11.4
2008-07-18 09:18:17 51°18.601 2°53.799 325.8 0.1 338 11.5
2008-07-18 09:19:17 51°18.601 2°53.796 325 0.1 284 11.4
2008-07-18 09:20:17 51°18.601 2°53.796 329.5 -999 279 11.5
2008-07-18 09:21:17 51°18.601 2°53.795 329.1 -999 144 11.5
2008-07-18 09:22:17 51°18.601 2°53.795 332.2 0.1 222 11.5
2008-07-18 09:23:17 51°18.601 2°53.793 330.3 0.1 16 11.6
2008-07-18 09:24:17 51°18.601 2°53.793 331.2 0.1 331 11.6
2008-07-18 09:25:17 51°18.602 2°53.791 332.4 0.1 252 11.5
2008-07-18 09:26:17 51°18.603 2°53.789 333.2 0.1 284 11.6
2008-07-18 09:27:17 51°18.603 2°53.79 334.6 -999 30 11.5
2008-07-18 09:28:17 51°18.603 2°53.79 330.3 0.2 73 11.5
2008-07-18 09:29:17 51°18.602 2°53.792 332.4 0.1 121 11.5
2008-07-18 09:30:17 51°18.601 2°53.794 336.5 0.1 118 11.6
2008-07-18 09:31:17 51°18.6 2°53.798 337.9 0.2 83 11.7
2008-07-18 09:32:17 51°18.6 2°53.802 339.4 0.2 43 11.7
2008-07-18 09:33:17 51°18.601 2°53.804 336.6 0.1 75 11.5
2008-07-18 09:34:17 51°18.601 2°53.808 333.1 0.1 61 11.6
2008-07-18 09:35:17 51°18.602 2°53.81 332.3 0.1 57 11.6
2008-07-18 09:36:17 51°18.603 2°53.812 331.5 0.1 55 11.4
2008-07-18 09:37:17 51°18.604 2°53.815 332.1 0.1 53 11.7
2008-07-18 09:38:17 51°18.605 2°53.819 330.3 0.1 97 11.6
2008-07-18 09:39:17 51°18.606 2°53.82 327.2 0.1 357 11.7
2008-07-18 09:40:17 51°18.607 2°53.822 326.5 0.1 19 11.7
2008-07-18 09:41:17 51°18.61 2°53.826 328.6 0.1 50 11.6
2008-07-18 09:42:17 51°18.612 2°53.827 324.3 0.1 39 11.7
2008-07-18 09:43:17 51°18.613 2°53.83 319.8 0.1 24 11.7
2008-07-18 09:44:17 51°18.615 2°53.831 317.2 0.1 7 11.8
2008-07-18 09:45:17 51°18.617 2°53.832 315.5 0.1 41 11.8
2008-07-18 09:46:17 51°18.618 2°53.835 313.9 0.1 54 11.8
2008-07-18 09:47:17 51°18.619 2°53.836 310.9 0.1 36 11.7
2008-07-18 09:48:17 51°18.62 2°53.841 314.2 0.3 91 11.7
2008-07-18 09:49:17 51°18.62 2°53.846 316.9 0.2 91 11.7
2008-07-18 09:50:17 51°18.62 2°53.849 314.2 0.2 60 11.7
2008-07-18 09:51:17 51°18.623 2°53.851 310.8 0.2 342 11.9
2008-07-18 09:52:17 51°18.626 2°53.853 310.1 0.1 25 11.9
2008-07-18 09:53:17 51°18.628 2°53.854 307.2 0.2 45 11.8
2008-07-18 09:54:17 51°18.63 2°53.856 306 0.1 9 12
2008-07-18 09:55:17 51°18.632 2°53.86 305 0.1 323 12
2008-07-18 09:56:17 51°18.634 2°53.86 298.2 0.1 29 11.8
2008-07-18 09:57:17 51°18.636 2°53.861 297.4 0.1 8 12
2008-07-18 09:58:17 51°18.639 2°53.86 294.9 0.2 338 11.9
2008-07-18 09:59:17 51°18.641 2°53.861 293.9 0.2 3 12
2008-07-18 10:00:17 51°18.643 2°53.86 288.3 0.1 356 12
2008-07-18 10:01:17 51°18.646 2°53.86 285.2 0.1 300 12.1
2008-07-18 10:02:17 51°18.649 2°53.867 296.1 0.6 72 12
2008-07-18 10:03:17 51°18.649 2°53.88 308.9 0.3 128 12
2008-07-18 10:04:17 51°18.648 2°53.885 289.2 0.1 5 12.2
2008-07-18 10:05:17 51°18.649 2°53.884 287.3 0.2 345 12.1
2008-07-18 10:06:17 51°18.651 2°53.883 286.6 0.1 341 12.1
2008-07-18 10:07:17 51°18.653 2°53.882 283.8 0.2 323 12.1
2008-07-18 10:08:17 51°18.655 2°53.881 279.2 0.1 26 12
2008-07-18 10:09:17 51°18.654 2°53.883 273.9 0.1 124 12.1
2008-07-18 10:10:17 51°18.654 2°53.883 267.7 0.2 193 12.2
2008-07-18 10:11:17 51°18.652 2°53.885 265.4 0.1 242 12.2
2008-07-18 10:12:17 51°18.651 2°53.884 268.7 0.1 103 12.1
2008-07-18 10:13:17 51°18.651 2°53.884 269.3 0.1 267 12.2
2008-07-18 10:14:17 51°18.651 2°53.885 272.9 0.1 261 12.3
2008-07-18 10:15:17 51°18.651 2°53.885 273.1 0.2 77 12.2
2008-07-18 10:16:17 51°18.651 2°53.886 266.3 0.1 177 12.3
2008-07-18 10:17:17 51°18.65 2°53.886 263.1 0.1 148 12.3
2008-07-18 10:18:17 51°18.648 2°53.887 263.1 0.1 135 12.2
2008-07-18 10:19:17 51°18.647 2°53.886 269.2 0.1 320 12.4
2008-07-18 10:20:17 51°18.648 2°53.886 273.5 0.1 317 12.3
2008-07-18 10:21:17 51°18.65 2°53.885 275.6 0.2 11 12.3
2008-07-18 10:22:17 51°18.651 2°53.886 271.5 -999 6 12.3
2008-07-18 10:23:17 51°18.652 2°53.884 267 0.1 66 12.3
2008-07-18 10:24:17 51°18.652 2°53.885 263.9 0.2 226 12.5
2008-07-18 10:25:17 51°18.652 2°53.886 264.4 0.1 75 12.4
2008-07-18 10:26:17 51°18.652 2°53.884 262.9 0.1 267 12.5
2008-07-18 10:27:17 51°18.652 2°53.885 263.2 0.1 292 12.5
2008-07-18 10:28:17 51°18.652 2°53.884 262.1 0.1 17 12.5
2008-07-18 10:29:17 51°18.652 2°53.885 258.6 0.2 258 12.6
2008-07-18 10:30:17 51°18.651 2°53.886 253.7 0.2 88 12.5
2008-07-18 10:31:17 51°18.65 2°53.885 257.1 0.2 211 12.6
2008-07-18 10:32:17 51°18.65 2°53.886 260.1 0.1 76 12.5
2008-07-18 10:33:17 51°18.649 2°53.886 259.3 0.1 126 12.6
2008-07-18 10:34:17 51°18.649 2°53.887 258.1 0.1 340 12.5
2008-07-18 10:35:17 51°18.65 2°53.887 263.7 0.1 168 12.5
2008-07-18 10:36:17 51°18.649 2°53.886 256.2 0.2 135 12.7
2008-07-18 10:37:17 51°18.648 2°53.887 255.1 0.2 246 12.7
2008-07-18 10:38:17 51°18.647 2°53.888 254.6 0.2 133 12.8
2008-07-18 10:39:17 51°18.646 2°53.888 256.2 0.1 199 12.7
2008-07-18 10:40:17 51°18.645 2°53.888 260.9 0.1 114 12.7
2008-07-18 10:41:17 51°18.647 2°53.886 266.5 -999 12 12.8
2008-07-18 10:42:17 51°18.649 2°53.887 264.7 0.2 297 12.9
2008-07-18 10:43:17 51°18.649 2°53.888 259.6 0.2 82 12.7
2008-07-18 10:44:17 51°18.647 2°53.887 253 0.2 191 12.9
2008-07-18 10:45:17 51°18.645 2°53.888 253.3 -999 210 12.8
2008-07-18 10:46:17 51°18.645 2°53.888 258.3 0.1 27 12.9
2008-07-18 10:47:17 51°18.647 2°53.887 265.4 0.3 326 12.8
2008-07-18 10:48:17 51°18.648 2°53.888 265.8 0.1 263 12.9
2008-07-18 10:49:17 51°18.649 2°53.888 259.6 0.1 2 12.9
2008-07-18 10:50:17 51°18.648 2°53.888 252.2 0.1 137 13
2008-07-18 10:51:17 51°18.644 2°53.888 248.9 0.2 184 13
2008-07-18 10:52:17 51°18.643 2°53.888 259.6 0.1 34 12.9
2008-07-18 10:53:17 51°18.646 2°53.887 270.9 0.3 338 13
2008-07-18 10:54:17 51°18.651 2°53.886 267.3 0.2 345 13.1
2008-07-18 10:55:17 51°18.651 2°53.886 256.8 0.2 297 13.1
2008-07-18 10:56:17 51°18.649 2°53.888 248 0.2 170 13.1
2008-07-18 10:57:17 51°18.645 2°53.888 251.6 0.1 163 13.1
2008-07-18 10:58:17 51°18.647 2°53.888 261.9 0.1 352 13.2
2008-07-18 10:59:17 51°18.648 2°53.887 261.2 0.1 357 13.2
2008-07-18 11:00:17 51°18.649 2°53.887 257 0.1 31 13.1
2008-07-18 11:01:17 51°18.648 2°53.888 253 0.2 96 13.1
2008-07-18 11:02:17 51°18.647 2°53.886 254.9 0.1 162 13.2
2008-07-18 11:03:17 51°18.647 2°53.888 257.6 0.2 276 13.2
2008-07-18 11:04:17 51°18.649 2°53.888 262.1 0.2 57 13.3
2008-07-18 11:05:17 51°18.651 2°53.886 258.2 0.1 144 13.4
2008-07-18 11:06:17 51°18.65 2°53.888 251.5 0.2 205 13.3
2008-07-18 11:07:17 51°18.646 2°53.888 247.2 0.3 174 13.3
2008-07-18 11:08:17 51°18.644 2°53.889 257.1 0.1 338 13.4
2008-07-18 11:09:17 51°18.648 2°53.887 268.5 0.4 324 13.4
2008-07-18 11:10:17 51°18.653 2°53.886 267 0.1 331 13.6
2008-07-18 11:11:17 51°18.652 2°53.886 250.8 0.3 117 13.4
2008-07-18 11:12:17 51°18.649 2°53.887 247 0.4 176 13.4
2008-07-18 11:13:17 51°18.648 2°53.889 254 0.2 291 13.3
2008-07-18 11:14:17 51°18.649 2°53.886 261.9 0.2 47 13.5
2008-07-18 11:15:17 51°18.651 2°53.886 255.2 0.1 305 13.5
2008-07-18 11:16:17 51°18.651 2°53.886 249.9 0.1 231 13.5
2008-07-18 11:17:17 51°18.65 2°53.889 245.8 0.1 186 13.5
2008-07-18 11:18:17 51°18.647 2°53.889 247.7 0.1 63 13.5
2008-07-18 11:19:17 51°18.649 2°53.888 258.7 0.4 22 13.5
2008-07-18 11:20:17 51°18.654 2°53.885 262.3 0.3 353 13.5
2008-07-18 11:21:17 51°18.655 2°53.885 249 0.2 131 13.6
2008-07-18 11:22:17 51°18.651 2°53.886 243.2 0.2 173 13.6
2008-07-18 11:23:17 51°18.651 2°53.888 252.9 0.2 315 13.6
2008-07-18 11:24:17 51°18.655 2°53.884 260.4 0.4 357 13.7
2008-07-18 11:25:17 51°18.657 2°53.884 251.4 0.1 100 13.6
2008-07-18 11:26:17 51°18.653 2°53.887 240.5 0.2 151 13.6
2008-07-18 11:27:17 51°18.651 2°53.888 248.9 0.1 23 13.7
2008-07-18 11:28:17 51°18.652 2°53.886 257.9 0.3 4 13.5
2008-07-18 11:29:17 51°18.656 2°53.884 257.7 0.3 339 13.7
2008-07-18 11:30:17 51°18.656 2°53.884 245.3 0.3 192 13.8
2008-07-18 11:31:17 51°18.651 2°53.888 235.5 0.4 163 13.6
2008-07-18 11:32:17 51°18.647 2°53.889 247.1 0.2 84 13.7
2008-07-18 11:33:17 51°18.649 2°53.887 259.1 0.2 353 13.7
2008-07-18 11:34:18 51°18.655 2°53.884 260.7 0.3 313 13.7
2008-07-18 11:35:17 51°18.657 2°53.883 247.4 0.1 167 13.8
2008-07-18 11:36:18 51°18.654 2°53.886 238.1 0.4 158 13.7
2008-07-18 11:37:17 51°18.651 2°53.887 243.5 0.2 162 13.8
2008-07-18 11:38:18 51°18.653 2°53.887 257.4 0.3 356 13.6
2008-07-18 11:39:17 51°18.656 2°53.884 252.3 0.1 8 14
2008-07-18 11:40:17 51°18.655 2°53.886 242.1 0.3 178 13.9
2008-07-18 11:41:17 51°18.649 2°53.888 237.5 0.3 166 13.8
2008-07-18 11:42:17 51°18.649 2°53.888 252.7 0.3 1 13.8
2008-07-18 11:43:18 51°18.654 2°53.885 258.9 0.3 353 13.9
2008-07-18 11:44:17 51°18.657 2°53.883 249.2 0.1 174 13.9
2008-07-18 11:45:18 51°18.655 2°53.886 239.5 0.5 162 13.8
2008-07-18 11:46:17 51°18.65 2°53.888 239.8 -999 194 13.9
2008-07-18 11:47:17 51°18.65 2°53.888 251.5 0.2 5 13.9
2008-07-18 11:48:17 51°18.654 2°53.885 256.3 0.3 346 13.8
2008-07-18 11:49:17 51°18.656 2°53.885 249 0.1 171 13.9
2008-07-18 11:50:17 51°18.653 2°53.887 242 0.1 152 13.8
2008-07-18 11:51:17 51°18.652 2°53.887 249.1 -999 346 13.9
2008-07-18 11:52:17 51°18.655 2°53.885 255.3 0.3 316 14
2008-07-18 11:53:17 51°18.659 2°53.883 252.4 -999 21 14
2008-07-18 11:54:17 51°18.657 2°53.885 240 0.2 126 13.9
2008-07-18 11:55:17 51°18.652 2°53.887 236 0.3 175 13.9
2008-07-18 11:56:17 51°18.651 2°53.887 248.3 -999 329 13.9
2008-07-18 11:57:17 51°18.654 2°53.885 254.5 0.3 345 14
2008-07-18 11:58:17 51°18.657 2°53.882 251.2 0.1 250 14
2008-07-18 11:59:17 51°18.657 2°53.884 241.6 0.3 152 13.9
2008-07-18 12:00:17 51°18.653 2°53.886 241.1 0.2 142 13.9
2008-07-18 12:01:17 51°18.655 2°53.885 252 0.3 354 13.9
2008-07-18 12:02:17 51°18.658 2°53.882 249.9 0.1 115 13.9
2008-07-18 12:03:17 51°18.656 2°53.884 238.3 0.2 181 14
2008-07-18 12:04:17 51°18.653 2°53.886 237.5 0.2 201 14.1
2008-07-18 12:05:17 51°18.652 2°53.886 246.6 0.3 326 13.9
2008-07-18 12:06:17 51°18.656 2°53.884 254 0.4 326 13.9
2008-07-18 12:07:17 51°18.661 2°53.881 249.7 0.1 343 13.9
2008-07-18 12:08:17 51°18.658 2°53.883 235 0.4 153 14
2008-07-18 12:09:17 51°18.655 2°53.884 239.1 0.1 288 14
2008-07-18 12:10:17 51°18.655 2°53.885 243.8 0.1 246 14
2008-07-18 12:11:17 51°18.657 2°53.883 245.1 0.2 201 13.9
2008-07-18 12:12:17 51°18.657 2°53.883 243.8 0.1 232 14.1
2008-07-18 12:13:17 51°18.658 2°53.884 243.8 0.2 206 14
2008-07-18 12:14:17 51°18.658 2°53.884 242.7 0.1 38 14
2008-07-18 12:15:17 51°18.657 2°53.885 239.9 0.1 162 14.1
2008-07-18 12:16:17 51°18.659 2°53.883 245.1 0.1 355 14
2008-07-18 12:17:17 51°18.657 2°53.883 242.2 0.2 313 14
2008-07-18 12:18:17 51°18.658 2°53.884 239.8 0.2 27 14
2008-07-18 12:19:17 51°18.659 2°53.883 240.4 -999 320 13.9
2008-07-18 12:20:17 51°18.659 2°53.883 235.8 -999 7 14
2008-07-18 12:21:17 51°18.658 2°53.885 237.4 0.1 105 14
2008-07-18 12:22:17 51°18.656 2°53.885 237.7 0.1 199 14.2
2008-07-18 12:23:17 51°18.654 2°53.885 237.4 0.1 116 14.1
2008-07-18 12:24:18 51°18.656 2°53.884 243.8 0.2 303 14
2008-07-18 12:25:17 51°18.658 2°53.884 239.4 0.1 14 14
2008-07-18 12:26:18 51°18.658 2°53.883 238.5 0.1 66 13.8
2008-07-18 12:27:17 51°18.657 2°53.884 236.7 0.2 118 14
2008-07-18 12:28:18 51°18.655 2°53.884 237.7 0.1 143 14
2008-07-18 12:29:17 51°18.656 2°53.884 242.8 0.2 279 13.9
2008-07-18 12:30:18 51°18.658 2°53.884 243.4 0.1 336 13.9
2008-07-18 12:31:18 51°18.658 2°53.882 240.7 0.2 25 14
2008-07-18 12:32:17 51°18.658 2°53.883 238.7 0.2 162 13.9
2008-07-18 12:33:18 51°18.657 2°53.884 238.9 0.2 212 13.9
2008-07-18 12:34:17 51°18.655 2°53.885 238.4 -999 242 14
2008-07-18 12:35:18 51°18.656 2°53.885 240.1 0.2 111 13.9
2008-07-18 12:36:17 51°18.657 2°53.884 240.3 -999 146 14.1
2008-07-18 12:37:18 51°18.657 2°53.882 240.1 -999 230 14
2008-07-18 12:38:18 51°18.658 2°53.883 239.1 0.2 266 14.1
2008-07-18 12:39:17 51°18.659 2°53.883 238.9 0.1 290 14
2008-07-18 12:40:18 51°18.659 2°53.883 239.7 0.3 75 14
2008-07-18 12:41:17 51°18.658 2°53.882 238.3 0.1 153 13.9
2008-07-18 12:42:17 51°18.658 2°53.882 240 0.2 281 13.9
2008-07-18 12:43:17 51°18.66 2°53.883 238.9 0.1 300 13.9
2008-07-18 12:44:17 51°18.66 2°53.883 238.5 0.2 23 14
2008-07-18 12:45:17 51°18.659 2°53.883 238.2 0.4 86 14
2008-07-18 12:46:17 51°18.657 2°53.884 239.3 -999 152 13.9
2008-07-18 12:47:17 51°18.658 2°53.884 242.3 -999 233 13.9
2008-07-18 12:48:17 51°18.659 2°53.883 242.3 0.1 345 13.9
2008-07-18 12:49:17 51°18.662 2°53.879 242.3 0.2 307 13.8
2008-07-18 12:50:17 51°18.661 2°53.88 232.9 0.2 178 14.1
2008-07-18 12:51:17 51°18.659 2°53.884 231.1 0.2 194 14.1
2008-07-18 12:52:17 51°18.657 2°53.885 234.3 0.1 55 13.9
2008-07-18 12:53:17 51°18.657 2°53.884 240.1 0.1 8 14
2008-07-18 12:54:17 51°18.659 2°53.883 240.4 0.1 30 13.8
2008-07-18 12:55:17 51°18.658 2°53.883 236 0.2 247 14
2008-07-18 12:56:17 51°18.658 2°53.884 235.8 0.2 196 13.9
2008-07-18 12:57:17 51°18.657 2°53.885 236.2 0.1 352 13.9
2008-07-18 12:58:17 51°18.657 2°53.885 238.3 0.1 40 13.9
2008-07-18 12:59:17 51°18.658 2°53.885 239.9 0.2 331 14
2008-07-18 13:00:17 51°18.66 2°53.883 238 0.2 329 13.9
2008-07-18 13:01:17 51°18.661 2°53.883 236.6 0.2 84 13.7
2008-07-18 13:02:17 51°18.66 2°53.882 235.7 0.1 19 13.8
2008-07-18 13:03:18 51°18.659 2°53.883 235.8 0.2 234 14
2008-07-18 13:04:17 51°18.658 2°53.885 235.1 0.3 245 13.7
2008-07-18 13:05:18 51°18.658 2°53.886 239.4 0.4 47 13.7
2008-07-18 13:06:17 51°18.658 2°53.882 240.3 0.1 6 13.9
2008-07-18 13:07:18 51°18.659 2°53.884 235.7 0.1 171 13.8
2008-07-18 13:08:17 51°18.658 2°53.885 233.2 0.2 218 13.8
2008-07-18 13:09:17 51°18.658 2°53.887 235.3 -999 27 14
2008-07-18 13:10:17 51°18.657 2°53.886 237.6 0.1 68 13.9
2008-07-18 13:11:17 51°18.659 2°53.885 240.3 0.1 350 13.8
2008-07-18 13:12:18 51°18.66 2°53.882 239.5 0.2 334 13.9
2008-07-18 13:13:17 51°18.66 2°53.883 233.9 0.1 233 13.9
2008-07-18 13:14:18 51°18.659 2°53.885 229.2 0.3 175 13.6
2008-07-18 13:15:17 51°18.656 2°53.886 231.5 0.1 154 13.9
2008-07-18 13:16:18 51°18.657 2°53.887 236.9 0.1 95 13.9
2008-07-18 13:17:17 51°18.657 2°53.886 234.6 0.2 67 13.8
2008-07-18 13:18:18 51°18.658 2°53.884 239 0.2 80 13.9
2008-07-18 13:19:17 51°18.658 2°53.884 235.9 0.2 250 13.9
2008-07-18 13:20:18 51°18.657 2°53.885 231.4 0.2 181 13.8
2008-07-18 13:21:18 51°18.655 2°53.887 231.4 0.3 251 13.8
2008-07-18 13:22:17 51°18.653 2°53.888 236.2 -999 249 13.8
2008-07-18 13:23:18 51°18.655 2°53.886 240.6 0.4 311 13.7
2008-07-18 13:24:17 51°18.657 2°53.887 240 0.2 282 13.6
2008-07-18 13:25:18 51°18.657 2°53.886 235.7 -999 353 13.8
2008-07-18 13:26:17 51°18.657 2°53.886 237.8 0.1 286 13.7
2008-07-18 13:27:18 51°18.657 2°53.885 237.4 0.2 255 13.9
2008-07-18 13:28:18 51°18.66 2°53.884 240.1 0.2 242 13.7
2008-07-18 13:29:18 51°18.66 2°53.884 236.5 0.1 48 13.7
2008-07-18 13:30:18 51°18.659 2°53.885 232.6 0.3 83 13.7
2008-07-18 13:31:17 51°18.659 2°53.883 237.8 -999 32 13.9
2008-07-18 13:32:18 51°18.661 2°53.883 237.5 -999 223 13.6
2008-07-18 13:33:17 51°18.66 2°53.883 236.2 0.1 267 13.7
2008-07-18 13:34:17 51°18.661 2°53.883 236.1 -999 246 13.7
2008-07-18 13:35:17 51°18.661 2°53.882 237.9 0.1 56 13.8
2008-07-18 13:36:17 51°18.661 2°53.882 236.9 0.1 251 13.7
2008-07-18 13:37:17 51°18.661 2°53.883 235.1 0.1 260 13.6
2008-07-18 13:38:17 51°18.663 2°53.882 238.7 0.2 297 13.6
2008-07-18 13:39:17 51°18.663 2°53.882 232.2 0.1 132 13.6
2008-07-18 13:40:17 51°18.661 2°53.883 229.3 0.2 153 13.7
2008-07-18 13:41:17 51°18.66 2°53.884 229.3 0.1 163 13.6
2008-07-18 13:42:17 51°18.657 2°53.885 233.6 0.1 190 13.7
2008-07-18 13:43:17 51°18.658 2°53.884 237.4 0.1 308 13.6
2008-07-18 13:44:17 51°18.66 2°53.885 236.6 0.1 249 13.5
2008-07-18 13:45:17 51°18.662 2°53.883 239 0.3 49 13.6
2008-07-18 13:46:18 51°18.662 2°53.879 237.9 0.3 331 13.6
2008-07-18 13:47:17 51°18.665 2°53.88 235.5 0.2 271 13.5
2008-07-18 13:48:18 51°18.664 2°53.881 228.8 0.2 166 13.5
2008-07-18 13:49:17 51°18.662 2°53.883 228 0.2 102 13.6
2008-07-18 13:50:18 51°18.661 2°53.881 234.8 0.1 65 13.6
2008-07-18 13:51:17 51°18.661 2°53.882 235.1 0.1 258 13.6
2008-07-18 13:52:17 51°18.662 2°53.883 234 0.1 217 13.5
2008-07-18 13:53:18 51°18.662 2°53.882 233.2 0.1 282 13.5
2008-07-18 13:54:18 51°18.661 2°53.882 231.7 0.1 230 13.5
2008-07-18 13:55:18 51°18.66 2°53.882 230.8 0.1 109 13.3
2008-07-18 13:56:18 51°18.66 2°53.883 232.7 -999 342 13.5
2008-07-18 13:57:18 51°18.66 2°53.883 235.8 0.1 303 13.5
2008-07-18 13:58:18 51°18.662 2°53.882 240.1 -999 45 13.5
2008-07-18 13:59:18 51°18.664 2°53.878 238.6 0.1 293 13.4
2008-07-18 14:00:18 51°18.666 2°53.878 234.8 0.2 122 13.4
2008-07-18 14:01:18 51°18.664 2°53.88 227.9 0.3 134 13.6
2008-07-18 14:02:18 51°18.661 2°53.881 227.3 0.2 156 13.4
2008-07-18 14:03:18 51°18.66 2°53.883 232.1 0.2 261 13.4
2008-07-18 14:04:18 51°18.662 2°53.882 235.5 0.2 20 13.4
2008-07-18 14:05:18 51°18.662 2°53.88 235.2 0.1 322 13.4
2008-07-18 14:06:18 51°18.663 2°53.881 233.6 0.1 191 13.3
2008-07-18 14:07:18 51°18.662 2°53.882 231.6 0.1 63 13.4
2008-07-18 14:08:18 51°18.662 2°53.88 233.3 -999 110 13.4
2008-07-18 14:09:18 51°18.663 2°53.881 232.2 -999 46 13.3
2008-07-18 14:10:18 51°18.662 2°53.881 231.2 0.1 231 13.4
2008-07-18 14:11:18 51°18.661 2°53.883 231.4 0.2 70 13.3
2008-07-18 14:12:18 51°18.66 2°53.883 230.8 0.1 231 13.5
2008-07-18 14:13:18 51°18.661 2°53.885 233.2 0.1 111 13.1
2008-07-18 14:14:18 51°18.662 2°53.882 236.1 0.2 345 13.2
2008-07-18 14:15:18 51°18.662 2°53.882 230.7 0.2 241 13.4
2008-07-18 14:16:18 51°18.662 2°53.883 232.6 0.2 318 13.3
2008-07-18 14:17:18 51°18.663 2°53.882 235.1 0.1 329 13.3
2008-07-18 14:18:18 51°18.662 2°53.882 230.9 0.1 246 13.2
2008-07-18 14:19:18 51°18.662 2°53.883 230.9 0.2 16 13.1
2008-07-18 14:20:18 51°18.66 2°53.883 229.4 0.2 236 13.3
2008-07-18 14:21:18 51°18.661 2°53.884 233.6 0.1 112 13.4
2008-07-18 14:22:18 51°18.661 2°53.883 231.9 0.1 323 13.2
2008-07-18 14:23:17 51°18.662 2°53.885 231.9 -999 221 13.3
2008-07-18 14:24:18 51°18.661 2°53.878 238 0.5 272 13.3
2008-07-18 14:25:18 51°18.66 2°53.863 239.9 0.3 288 13.3
2008-07-18 14:26:18 51°18.658 2°53.853 230.8 0.5 228 13.1
2008-07-18 14:27:18 51°18.653 2°53.849 225.3 0.2 200 13.2
2008-07-18 14:28:17 51°18.649 2°53.846 227.6 0.3 221 13.2
2008-07-18 14:29:18 51°18.644 2°53.834 233.6 0.3 252 13.2
2008-07-18 14:30:17 51°18.645 2°53.832 231.9 0.5 264 13.3
2008-07-18 14:31:18 51°18.644 2°53.811 244.6 0.9 249 13.1
2008-07-18 14:32:18 51°18.639 2°53.803 217.9 0.6 186 13.2
2008-07-18 14:33:18 51°18.627 2°53.802 215.7 1.1 189 13
2008-07-18 14:34:18 51°18.592 2°53.795 193.2 2.8 178 12.8
2008-07-18 14:35:18 51°18.541 2°53.794 198.5 3.1 189 12.9
2008-07-18 14:36:18 51°18.476 2°53.759 205.8 6 203 12.8
2008-07-18 14:37:18 51°18.342 2°53.671 202.4 9.9 202 12.5
2008-07-18 14:38:18 51°18.179 2°53.573 199.4 10.7 200 12.1
2008-07-18 14:39:18 51°18.006 2°53.488 197.9 11 197 11.8
2008-07-18 14:40:18 51°17.829 2°53.422 193.2 11 191 11.4
2008-07-18 14:41:18 51°17.65 2°53.367 192.7 10.9 191 11.3
2008-07-18 14:42:18 51°17.471 2°53.314 191.4 10.8 189 11.3
2008-07-18 14:43:18 51°17.291 2°53.258 193.2 11 189 10.7
2008-07-18 14:44:18 51°17.111 2°53.212 188.9 11 186 10.4
2008-07-18 14:45:18 51°16.929 2°53.194 185.2 10.9 182 9.9
2008-07-18 14:46:18 51°16.743 2°53.196 181.4 11.3 178 12.7
2008-07-18 14:47:18 51°16.555 2°53.217 178.4 11.3 176 13.1
2008-07-18 14:48:18 51°16.367 2°53.231 181.2 11.5 179 13.2
2008-07-18 14:49:18 51°16.179 2°53.275 168.3 11.5 164 13.1
2008-07-18 14:50:18 51°15.998 2°53.379 161.9 11.7 156 12.9
2008-07-18 14:51:18 51°15.815 2°53.48 163.9 11.5 163 12.8
2008-07-18 14:52:18 51°15.633 2°53.576 164.3 11.7 161 12.2
2008-07-18 14:53:18 51°15.45 2°53.685 161 11.8 160 11.8
2008-07-18 14:54:18 51°15.267 2°53.79 161.7 11.6 158 11.1
2008-07-18 14:55:18 51°15.092 2°53.927 153 11.7 150 10.8
2008-07-18 14:56:18 51°14.925 2°54.092 149.8 11.9 146 10.5
2008-07-18 14:57:18 51°14.771 2°54.287 144.9 11.9 141 11.4
2008-07-18 14:58:18 51°14.617 2°54.487 140.8 12.1 136 11.7
2008-07-18 14:59:18 51°14.5 2°54.75 123.5 12.2 123 12.3
2008-07-18 15:00:18 51°14.388 2°55.018 128.3 12.2 126 11.8
2008-07-18 15:01:18 51°14.273 2°55.233 133.1 9.4 133 11.8
2008-07-18 15:02:18 51°14.178 2°55.363 146.2 6.6 145 12.5
2008-07-18 15:03:18 51°14.085 2°55.442 155.4 6.2 155 12.6